sensor_id;sensor_type;location;lat;lon;timestamp;temperature;humidity
34099;DHT22;20374;49.474;10.944;2023-04-01T00:00:57;8.40;99.90
34099;DHT22;20374;49.474;10.944;2023-04-01T00:03:24;8.50;99.90
34099;DHT22;20374;49.474;10.944;2023-04-01T00:05:51;8.50;99.90
34099;DHT22;20374;49.474;10.944;2023-04-01T00:08:17;8.50;99.90
34099;DHT22;20374;49.474;10.944;2023-04-01T00:10:43;8.60;99.90
34099;DHT22;20374;49.474;10.944;2023-04-01T00:13:10;8.60;99.90
34099;DHT22;20374;49.474;10.944;2023-04-01T00:15:36;8.60;99.90
34099;DHT22;20374;49.474;10.944;2023-04-01T00:18:02;8.70;99.90
34099;DHT22;20374;49.474;10.944;2023-04-01T00:20:28;8.70;99.90
34099;DHT22;20374;49.474;10.944;2023-04-01T00:22:54;8.70;99.90
34099;DHT22;20374;49.474;10.944;2023-04-01T00:25:21;8.70;99.90
34099;DHT22;20374;49.474;10.944;2023-04-01T00:27:47;8.70;99.90
34099;DHT22;20374;49.474;10.944;2023-04-01T00:30:15;8.80;99.90
34099;DHT22;20374;49.474;10.944;2023-04-01T00:32:41;8.80;99.90
34099;DHT22;20374;49.474;10.944;2023-04-01T00:35:08;8.70;99.90
34099;DHT22;20374;49.474;10.944;2023-04-01T00:37:37;8.70;99.90
34099;DHT22;20374;49.474;10.944;2023-04-01T00:40:06;8.70;99.90
34099;DHT22;20374;49.474;10.944;2023-04-01T00:42:32;8.80;99.90
34099;DHT22;20374;49.474;10.944;2023-04-01T00:44:58;8.80;99.90
34099;DHT22;20374;49.474;10.944;2023-04-01T00:47:44;8.80;99.90
34099;DHT22;20374;49.474;10.944;2023-04-01T00:50:10;8.80;99.90
34099;DHT22;20374;49.474;10.944;2023-04-01T00:52:37;8.80;99.90
34099;DHT22;20374;49.474;10.944;2023-04-01T00:55:03;8.80;99.90
34099;DHT22;20374;49.474;10.944;2023-04-01T00:57:36;8.90;99.90
34099;DHT22;20374;49.474;10.944;2023-04-01T01:00:06;8.90;99.90
34099;DHT22;20374;49.474;10.944;2023-04-01T01:02:33;8.90;99.90
34099;DHT22;20374;49.474;10.944;2023-04-01T01:05:00;8.90;99.90
34099;DHT22;20374;49.474;10.944;2023-04-01T01:07:47;8.90;99.90
34099;DHT22;20374;49.474;10.944;2023-04-01T01:10:43;8.90;99.90
34099;DHT22;20374;49.474;10.944;2023-04-01T01:13:34;8.90;99.90
34099;DHT22;20374;49.474;10.944;2023-04-01T01:16:25;8.90;99.90
34099;DHT22;20374;49.474;10.944;2023-04-01T01:19:50;8.90;99.90
34099;DHT22;20374;49.474;10.944;2023-04-01T01:25:27;8.90;99.90
34099;DHT22;20374;49.474;10.944;2023-04-01T01:31:08;8.80;99.90
34099;DHT22;20374;49.474;10.944;2023-04-01T01:34:00;8.80;99.90
34099;DHT22;20374;49.474;10.944;2023-04-01T01:36:31;8.90;99.90
34099;DHT22;20374;49.474;10.944;2023-04-01T01:39:03;8.90;99.90
34099;DHT22;20374;49.474;10.944;2023-04-01T01:41:31;8.80;99.90
34099;DHT22;20374;49.474;10.944;2023-04-01T01:43:58;8.80;99.90
34099;DHT22;20374;49.474;10.944;2023-04-01T01:46:26;8.80;99.90
34099;DHT22;20374;49.474;10.944;2023-04-01T01:48:54;8.80;99.90
34099;DHT22;20374;49.474;10.944;2023-04-01T01:51:22;8.80;99.90
34099;DHT22;20374;49.474;10.944;2023-04-01T01:53:49;8.80;99.90
34099;DHT22;20374;49.474;10.944;2023-04-01T01:56:19;8.80;99.90
34099;DHT22;20374;49.474;10.944;2023-04-01T01:59:00;8.80;99.90
34099;DHT22;20374;49.474;10.944;2023-04-01T02:01:30;8.70;99.90
34099;DHT22;20374;49.474;10.944;2023-04-01T02:04:04;8.80;99.90
34099;DHT22;20374;49.474;10.944;2023-04-01T02:06:32;8.70;99.90
34099;DHT22;20374;49.474;10.944;2023-04-01T02:09:03;8.80;99.90
34099;DHT22;20374;49.474;10.944;2023-04-01T02:11:34;8.70;99.90
34099;DHT22;20374;49.474;10.944;2023-04-01T02:14:10;8.80;99.90
34099;DHT22;20374;49.474;10.944;2023-04-01T02:16:49;8.70;99.90
34099;DHT22;20374;49.474;10.944;2023-04-01T02:19:17;8.70;99.90
34099;DHT22;20374;49.474;10.944;2023-04-01T02:21:51;8.60;99.90
34099;DHT22;20374;49.474;10.944;2023-04-01T02:24:20;8.70;99.90
34099;DHT22;20374;49.474;10.944;2023-04-01T02:26:50;8.80;99.90
34099;DHT22;20374;49.474;10.944;2023-04-01T02:29:20;8.80;99.90
34099;DHT22;20374;49.474;10.944;2023-04-01T02:31:47;8.80;99.90
34099;DHT22;20374;49.474;10.944;2023-04-01T02:34:13;8.80;99.90
34099;DHT22;20374;49.474;10.944;2023-04-01T02:36:40;8.90;99.90
34099;DHT22;20374;49.474;10.944;2023-04-01T02:39:06;8.90;99.90
34099;DHT22;20374;49.474;10.944;2023-04-01T02:41:41;8.80;99.90
34099;DHT22;20374;49.474;10.944;2023-04-01T02:44:10;8.80;99.90
34099;DHT22;20374;49.474;10.944;2023-04-01T02:46:36;8.80;99.90
34099;DHT22;20374;49.474;10.944;2023-04-01T02:49:02;8.80;99.90
34099;DHT22;20374;49.474;10.944;2023-04-01T02:51:28;8.80;99.90
34099;DHT22;20374;49.474;10.944;2023-04-01T02:53:54;8.80;99.90
34099;DHT22;20374;49.474;10.944;2023-04-01T02:56:20;8.80;99.90
34099;DHT22;20374;49.474;10.944;2023-04-01T02:58:47;8.70;99.90
34099;DHT22;20374;49.474;10.944;2023-04-01T03:01:13;8.80;99.90
34099;DHT22;20374;49.474;10.944;2023-04-01T03:03:40;8.70;99.90
34099;DHT22;20374;49.474;10.944;2023-04-01T03:06:08;8.80;99.90
34099;DHT22;20374;49.474;10.944;2023-04-01T03:08:34;8.70;99.90
34099;DHT22;20374;49.474;10.944;2023-04-01T03:11:00;8.80;99.90
34099;DHT22;20374;49.474;10.944;2023-04-01T03:13:26;8.70;99.90
34099;DHT22;20374;49.474;10.944;2023-04-01T03:15:53;8.70;99.90
34099;DHT22;20374;49.474;10.944;2023-04-01T03:18:19;8.60;99.90
34099;DHT22;20374;49.474;10.944;2023-04-01T03:20:45;8.70;99.90
34099;DHT22;20374;49.474;10.944;2023-04-01T03:23:11;8.70;99.90
34099;DHT22;20374;49.474;10.944;2023-04-01T03:25:38;8.70;99.90
34099;DHT22;20374;49.474;10.944;2023-04-01T03:28:04;8.70;99.90
34099;DHT22;20374;49.474;10.944;2023-04-01T03:30:30;8.70;99.90
34099;DHT22;20374;49.474;10.944;2023-04-01T03:32:57;8.70;99.90
34099;DHT22;20374;49.474;10.944;2023-04-01T03:35:25;8.70;99.90
34099;DHT22;20374;49.474;10.944;2023-04-01T03:37:51;8.40;99.90
34099;DHT22;20374;49.474;10.944;2023-04-01T03:40:18;8.60;99.90
34099;DHT22;20374;49.474;10.944;2023-04-01T03:42:44;8.50;99.90
34099;DHT22;20374;49.474;10.944;2023-04-01T03:45:10;8.50;99.90
34099;DHT22;20374;49.474;10.944;2023-04-01T03:47:38;8.60;99.90
34099;DHT22;20374;49.474;10.944;2023-04-01T03:50:05;8.60;99.90
34099;DHT22;20374;49.474;10.944;2023-04-01T03:52:32;8.60;99.90
34099;DHT22;20374;49.474;10.944;2023-04-01T03:54:58;8.60;99.90
34099;DHT22;20374;49.474;10.944;2023-04-01T03:57:24;8.50;99.90
34099;DHT22;20374;49.474;10.944;2023-04-01T03:59:51;8.60;99.90
34099;DHT22;20374;49.474;10.944;2023-04-01T04:02:17;8.70;99.90
34099;DHT22;20374;49.474;10.944;2023-04-01T04:04:43;8.70;99.90
34099;DHT22;20374;49.474;10.944;2023-04-01T04:07:09;8.70;99.90
34099;DHT22;20374;49.474;10.944;2023-04-01T04:09:55;8.80;99.90
34099;DHT22;20374;49.474;10.944;2023-04-01T04:12:21;8.70;99.90
34099;DHT22;20374;49.474;10.944;2023-04-01T04:14:47;8.70;99.90
34099;DHT22;20374;49.474;10.944;2023-04-01T04:17:13;8.80;99.90
34099;DHT22;20374;49.474;10.944;2023-04-01T04:19:45;8.80;99.90
34099;DHT22;20374;49.474;10.944;2023-04-01T04:22:15;8.70;99.90
34099;DHT22;20374;49.474;10.944;2023-04-01T04:24:41;8.70;99.90
34099;DHT22;20374;49.474;10.944;2023-04-01T04:27:11;8.70;99.90
34099;DHT22;20374;49.474;10.944;2023-04-01T04:29:45;8.60;99.90
34099;DHT22;20374;49.474;10.944;2023-04-01T04:32:11;8.70;99.90
34099;DHT22;20374;49.474;10.944;2023-04-01T04:34:38;8.70;99.90
34099;DHT22;20374;49.474;10.944;2023-04-01T04:37:04;8.70;99.90
34099;DHT22;20374;49.474;10.944;2023-04-01T04:39:34;8.70;99.90
34099;DHT22;20374;49.474;10.944;2023-04-01T04:42:00;8.70;99.90
34099;DHT22;20374;49.474;10.944;2023-04-01T04:44:26;8.60;99.90
34099;DHT22;20374;49.474;10.944;2023-04-01T04:46:52;8.70;99.90
34099;DHT22;20374;49.474;10.944;2023-04-01T04:49:18;8.60;99.90
34099;DHT22;20374;49.474;10.944;2023-04-01T04:51:44;8.70;99.90
34099;DHT22;20374;49.474;10.944;2023-04-01T04:54:11;8.60;99.90
34099;DHT22;20374;49.474;10.944;2023-04-01T04:56:51;8.50;99.90
34099;DHT22;20374;49.474;10.944;2023-04-01T04:59:18;8.50;99.90
34099;DHT22;20374;49.474;10.944;2023-04-01T05:01:51;8.50;99.90
34099;DHT22;20374;49.474;10.944;2023-04-01T05:04:17;8.50;99.90
34099;DHT22;20374;49.474;10.944;2023-04-01T05:06:43;8.50;99.90
34099;DHT22;20374;49.474;10.944;2023-04-01T05:09:10;8.40;99.90
34099;DHT22;20374;49.474;10.944;2023-04-01T05:11:36;8.50;99.90
34099;DHT22;20374;49.474;10.944;2023-04-01T05:14:02;8.50;99.90
34099;DHT22;20374;49.474;10.944;2023-04-01T05:16:31;8.50;99.90
34099;DHT22;20374;49.474;10.944;2023-04-01T05:18:58;8.60;99.90
34099;DHT22;20374;49.474;10.944;2023-04-01T05:21:24;8.60;99.90
34099;DHT22;20374;49.474;10.944;2023-04-01T05:23:51;8.60;99.90
34099;DHT22;20374;49.474;10.944;2023-04-01T05:26:17;8.50;99.90
34099;DHT22;20374;49.474;10.944;2023-04-01T05:28:43;8.50;99.90
34099;DHT22;20374;49.474;10.944;2023-04-01T05:31:09;8.50;99.90
34099;DHT22;20374;49.474;10.944;2023-04-01T05:33:38;8.50;99.90
34099;DHT22;20374;49.474;10.944;2023-04-01T05:36:10;8.50;99.90
34099;DHT22;20374;49.474;10.944;2023-04-01T05:38:37;8.60;99.90
34099;DHT22;20374;49.474;10.944;2023-04-01T05:41:05;8.60;99.90
34099;DHT22;20374;49.474;10.944;2023-04-01T05:43:36;8.60;99.90
34099;DHT22;20374;49.474;10.944;2023-04-01T05:46:14;8.60;99.90
34099;DHT22;20374;49.474;10.944;2023-04-01T05:48:53;8.60;99.90
34099;DHT22;20374;49.474;10.944;2023-04-01T05:51:19;8.60;99.90
34099;DHT22;20374;49.474;10.944;2023-04-01T05:53:46;8.60;99.90
34099;DHT22;20374;49.474;10.944;2023-04-01T05:56:12;8.60;99.90
34099;DHT22;20374;49.474;10.944;2023-04-01T05:58:51;8.70;99.90
34099;DHT22;20374;49.474;10.944;2023-04-01T06:01:17;8.70;99.90
34099;DHT22;20374;49.474;10.944;2023-04-01T06:03:45;8.70;99.90
34099;DHT22;20374;49.474;10.944;2023-04-01T06:06:15;8.70;99.90
34099;DHT22;20374;49.474;10.944;2023-04-01T06:08:41;8.70;99.90
34099;DHT22;20374;49.474;10.944;2023-04-01T06:11:28;8.80;99.90
34099;DHT22;20374;49.474;10.944;2023-04-01T06:14:10;8.90;99.90
34099;DHT22;20374;49.474;10.944;2023-04-01T06:25:24;8.90;99.90
34099;DHT22;20374;49.474;10.944;2023-04-01T06:36:43;9.60;99.90
34099;DHT22;20374;49.474;10.944;2023-04-01T06:39:27;9.80;99.90
34099;DHT22;20374;49.474;10.944;2023-04-01T06:42:10;9.90;99.90
34099;DHT22;20374;49.474;10.944;2023-04-01T06:50:36;9.60;99.90
34099;DHT22;20374;49.474;10.944;2023-04-01T06:54:31;10.00;99.90
34099;DHT22;20374;49.474;10.944;2023-04-01T06:56:54;10.20;99.90
34099;DHT22;20374;49.474;10.944;2023-04-01T06:59:30;10.40;99.90
34099;DHT22;20374;49.474;10.944;2023-04-01T07:02:11;10.40;99.90
34099;DHT22;20374;49.474;10.944;2023-04-01T07:04:48;10.20;99.90
34099;DHT22;20374;49.474;10.944;2023-04-01T07:07:36;10.10;99.90
34099;DHT22;20374;49.474;10.944;2023-04-01T07:10:23;10.20;99.90
34099;DHT22;20374;49.474;10.944;2023-04-01T07:13:30;10.20;99.90
34099;DHT22;20374;49.474;10.944;2023-04-01T07:21:42;10.40;99.90
34099;DHT22;20374;49.474;10.944;2023-04-01T07:24:27;10.30;99.90
34099;DHT22;20374;49.474;10.944;2023-04-01T07:27:08;10.20;99.90
34099;DHT22;20374;49.474;10.944;2023-04-01T07:29:35;10.20;99.90
34099;DHT22;20374;49.474;10.944;2023-04-01T07:40:42;10.30;99.90
34099;DHT22;20374;49.474;10.944;2023-04-01T07:43:34;10.40;99.90
34099;DHT22;20374;49.474;10.944;2023-04-01T07:54:51;10.60;99.90
34099;DHT22;20374;49.474;10.944;2023-04-01T07:58:23;10.70;99.90
34099;DHT22;20374;49.474;10.944;2023-04-01T08:12:22;10.80;99.90
34099;DHT22;20374;49.474;10.944;2023-04-01T08:15:22;10.80;99.90
34099;DHT22;20374;49.474;10.944;2023-04-01T08:21:35;11.00;99.90
34099;DHT22;20374;49.474;10.944;2023-04-01T08:24:24;11.10;99.90
34099;DHT22;20374;49.474;10.944;2023-04-01T08:26:54;11.10;99.90
34099;DHT22;20374;49.474;10.944;2023-04-01T08:29:31;11.10;99.90
34099;DHT22;20374;49.474;10.944;2023-04-01T08:32:20;11.00;99.90
34099;DHT22;20374;49.474;10.944;2023-04-01T08:35:00;11.20;99.90
34099;DHT22;20374;49.474;10.944;2023-04-01T08:37:39;11.20;99.90
34099;DHT22;20374;49.474;10.944;2023-04-01T08:46:29;11.00;99.90
34099;DHT22;20374;49.474;10.944;2023-04-01T08:50:00;11.10;99.90
34099;DHT22;20374;49.474;10.944;2023-04-01T08:52:37;11.00;99.90
34099;DHT22;20374;49.474;10.944;2023-04-01T08:55:36;11.00;99.90
34099;DHT22;20374;49.474;10.944;2023-04-01T09:04:32;10.90;99.90
34099;DHT22;20374;49.474;10.944;2023-04-01T09:13:39;11.00;99.90
34099;DHT22;20374;49.474;10.944;2023-04-01T10:35:06;9.40;99.90
34099;DHT22;20374;49.474;10.944;2023-04-01T10:47:25;8.90;99.90
34099;DHT22;20374;49.474;10.944;2023-04-01T10:58:03;9.20;99.90
34099;DHT22;20374;49.474;10.944;2023-04-01T11:11:03;9.20;99.90
34099;DHT22;20374;49.474;10.944;2023-04-01T11:25:05;9.30;99.90
34099;DHT22;20374;49.474;10.944;2023-04-01T11:27:56;9.10;99.90
34099;DHT22;20374;49.474;10.944;2023-04-01T11:33:57;9.00;99.90
34099;DHT22;20374;49.474;10.944;2023-04-01T11:39:14;9.00;99.90
34099;DHT22;20374;49.474;10.944;2023-04-01T11:48:03;9.10;99.90
34099;DHT22;20374;49.474;10.944;2023-04-01T11:53:41;9.00;99.90
34099;DHT22;20374;49.474;10.944;2023-04-01T11:56:21;8.90;99.90
34099;DHT22;20374;49.474;10.944;2023-04-01T12:07:53;9.20;99.90
34099;DHT22;20374;49.474;10.944;2023-04-01T12:22:00;9.70;99.90
34099;DHT22;20374;49.474;10.944;2023-04-01T12:28:05;9.70;99.90
34099;DHT22;20374;49.474;10.944;2023-04-01T12:33:50;9.50;99.90
34099;DHT22;20374;49.474;10.944;2023-04-01T12:47:11;9.70;99.90
34099;DHT22;20374;49.474;10.944;2023-04-01T13:27:39;10.20;99.90
34099;DHT22;20374;49.474;10.944;2023-04-01T13:32:55;10.50;99.90
34099;DHT22;20374;49.474;10.944;2023-04-01T13:35:27;10.60;99.90
34099;DHT22;20374;49.474;10.944;2023-04-01T13:43:43;10.50;99.90
34099;DHT22;20374;49.474;10.944;2023-04-01T14:08:04;10.40;99.90
34099;DHT22;20374;49.474;10.944;2023-04-01T14:10:42;10.30;99.90
34099;DHT22;20374;49.474;10.944;2023-04-01T14:16:20;10.10;99.90
34099;DHT22;20374;49.474;10.944;2023-04-01T14:30:41;9.80;99.90
34099;DHT22;20374;49.474;10.944;2023-04-01T14:33:30;9.70;99.90
34099;DHT22;20374;49.474;10.944;2023-04-01T14:44:22;9.60;99.90
34099;DHT22;20374;49.474;10.944;2023-04-01T14:47:11;9.50;99.90
34099;DHT22;20374;49.474;10.944;2023-04-01T14:49:50;9.60;99.90
34099;DHT22;20374;49.474;10.944;2023-04-01T14:52:38;9.50;99.90
34099;DHT22;20374;49.474;10.944;2023-04-01T15:03:57;9.90;99.90
34099;DHT22;20374;49.474;10.944;2023-04-01T15:14:16;10.10;99.90
34099;DHT22;20374;49.474;10.944;2023-04-01T15:17:05;10.10;99.90
34099;DHT22;20374;49.474;10.944;2023-04-01T15:25:23;10.00;99.90
34099;DHT22;20374;49.474;10.944;2023-04-01T15:30:37;9.80;99.90
34099;DHT22;20374;49.474;10.944;2023-04-01T15:33:20;9.80;99.90
34099;DHT22;20374;49.474;10.944;2023-04-01T15:36:01;9.80;99.90
34099;DHT22;20374;49.474;10.944;2023-04-01T15:38:55;9.80;99.90
34099;DHT22;20374;49.474;10.944;2023-04-01T15:43:53;9.80;99.90
34099;DHT22;20374;49.474;10.944;2023-04-01T16:02:58;9.70;99.90
34099;DHT22;20374;49.474;10.944;2023-04-01T16:14:22;9.40;99.90
34099;DHT22;20374;49.474;10.944;2023-04-01T16:22:39;9.40;99.90
34099;DHT22;20374;49.474;10.944;2023-04-01T16:25:33;9.40;99.90
34099;DHT22;20374;49.474;10.944;2023-04-01T16:28:25;9.40;99.90
34099;DHT22;20374;49.474;10.944;2023-04-01T16:34:08;9.40;99.90
34099;DHT22;20374;49.474;10.944;2023-04-01T16:36:45;9.40;99.90
34099;DHT22;20374;49.474;10.944;2023-04-01T16:44:50;9.40;99.90
34099;DHT22;20374;49.474;10.944;2023-04-01T16:47:55;9.40;99.90
34099;DHT22;20374;49.474;10.944;2023-04-01T16:50:30;9.60;99.90
34099;DHT22;20374;49.474;10.944;2023-04-01T16:53:17;9.40;99.90
34099;DHT22;20374;49.474;10.944;2023-04-01T16:56:07;9.30;99.90
34099;DHT22;20374;49.474;10.944;2023-04-01T16:58:35;9.20;99.90
34099;DHT22;20374;49.474;10.944;2023-04-01T17:01:06;9.20;99.90
34099;DHT22;20374;49.474;10.944;2023-04-01T17:03:45;9.10;99.90
34099;DHT22;20374;49.474;10.944;2023-04-01T17:09:23;9.10;99.90
34099;DHT22;20374;49.474;10.944;2023-04-01T17:12:08;9.00;99.90
34099;DHT22;20374;49.474;10.944;2023-04-01T17:14:47;9.00;99.90
34099;DHT22;20374;49.474;10.944;2023-04-01T17:25:25;8.80;99.90
34099;DHT22;20374;49.474;10.944;2023-04-01T17:27:57;8.80;99.90
34099;DHT22;20374;49.474;10.944;2023-04-01T17:30:39;8.80;99.90
34099;DHT22;20374;49.474;10.944;2023-04-01T17:35:58;8.80;99.90
34099;DHT22;20374;49.474;10.944;2023-04-01T17:51:58;8.90;99.90
34099;DHT22;20374;49.474;10.944;2023-04-01T17:57:31;8.90;99.90
34099;DHT22;20374;49.474;10.944;2023-04-01T18:03:14;9.00;99.90
34099;DHT22;20374;49.474;10.944;2023-04-01T18:10:54;9.00;99.90
34099;DHT22;20374;49.474;10.944;2023-04-01T18:19:27;9.00;99.90
34099;DHT22;20374;49.474;10.944;2023-04-01T18:29:49;9.00;99.90
34099;DHT22;20374;49.474;10.944;2023-04-01T18:34:57;9.00;99.90
34099;DHT22;20374;49.474;10.944;2023-04-01T18:37:42;8.90;99.90
34099;DHT22;20374;49.474;10.944;2023-04-01T18:45:32;8.90;99.90
34099;DHT22;20374;49.474;10.944;2023-04-01T18:48:27;9.00;99.90
34099;DHT22;20374;49.474;10.944;2023-04-01T18:50:56;9.00;99.90
34099;DHT22;20374;49.474;10.944;2023-04-01T18:58:36;8.90;99.90
34099;DHT22;20374;49.474;10.944;2023-04-01T19:01:28;8.90;99.90
34099;DHT22;20374;49.474;10.944;2023-04-01T19:10:50;8.80;99.90
34099;DHT22;20374;49.474;10.944;2023-04-01T19:13:33;8.80;99.90
34099;DHT22;20374;49.474;10.944;2023-04-01T19:16:34;8.70;99.90
34099;DHT22;20374;49.474;10.944;2023-04-01T19:21:35;8.80;99.90
34099;DHT22;20374;49.474;10.944;2023-04-01T19:35:47;8.80;99.90
34099;DHT22;20374;49.474;10.944;2023-04-01T19:39:00;8.80;99.90
34099;DHT22;20374;49.474;10.944;2023-04-01T19:41:57;8.80;99.90
34099;DHT22;20374;49.474;10.944;2023-04-01T19:52:54;8.80;99.90
34099;DHT22;20374;49.474;10.944;2023-04-01T19:58:50;8.80;99.90
34099;DHT22;20374;49.474;10.944;2023-04-01T20:01:34;8.90;99.90
34099;DHT22;20374;49.474;10.944;2023-04-01T20:04:07;8.90;99.90
34099;DHT22;20374;49.474;10.944;2023-04-01T20:10:30;8.90;99.90
34099;DHT22;20374;49.474;10.944;2023-04-01T20:12:32;8.90;99.90
34099;DHT22;20374;49.474;10.944;2023-04-01T20:15:21;8.90;99.90
34099;DHT22;20374;49.474;10.944;2023-04-01T20:17:48;9.00;99.90
34099;DHT22;20374;49.474;10.944;2023-04-01T20:20:26;8.90;99.90
34099;DHT22;20374;49.474;10.944;2023-04-01T20:26:01;9.00;99.90
34099;DHT22;20374;49.474;10.944;2023-04-01T20:45:35;9.00;99.90
34099;DHT22;20374;49.474;10.944;2023-04-01T20:53:28;9.00;99.90
34099;DHT22;20374;49.474;10.944;2023-04-01T21:04:30;8.90;99.90
34099;DHT22;20374;49.474;10.944;2023-04-01T21:07:39;9.00;99.90
34099;DHT22;20374;49.474;10.944;2023-04-01T21:13:21;8.90;99.90
34099;DHT22;20374;49.474;10.944;2023-04-01T21:16:16;8.90;99.90
34099;DHT22;20374;49.474;10.944;2023-04-01T22:06:08;8.80;99.90
34099;DHT22;20374;49.474;10.944;2023-04-01T22:14:22;8.80;99.90
34099;DHT22;20374;49.474;10.944;2023-04-01T22:19:42;8.80;99.90
34099;DHT22;20374;49.474;10.944;2023-04-01T22:33:01;8.80;99.90
34099;DHT22;20374;49.474;10.944;2023-04-01T22:38:13;8.70;99.90
34099;DHT22;20374;49.474;10.944;2023-04-01T22:43:38;8.80;99.90
34099;DHT22;20374;49.474;10.944;2023-04-01T22:51:55;8.70;99.90
34099;DHT22;20374;49.474;10.944;2023-04-01T22:55:40;8.70;99.90
34099;DHT22;20374;49.474;10.944;2023-04-01T22:57:38;8.70;99.90
34099;DHT22;20374;49.474;10.944;2023-04-01T23:00:22;8.70;99.90
34099;DHT22;20374;49.474;10.944;2023-04-01T23:05:31;8.70;99.90
34099;DHT22;20374;49.474;10.944;2023-04-01T23:08:05;8.70;99.90
34099;DHT22;20374;49.474;10.944;2023-04-01T23:10:47;8.60;99.90
34099;DHT22;20374;49.474;10.944;2023-04-01T23:13:20;8.60;99.90
34099;DHT22;20374;49.474;10.944;2023-04-01T23:15:48;8.60;99.90
34099;DHT22;20374;49.474;10.944;2023-04-01T23:18:28;8.60;99.90
34099;DHT22;20374;49.474;10.944;2023-04-01T23:24:20;8.60;99.90
34099;DHT22;20374;49.474;10.944;2023-04-01T23:29:37;8.60;99.90
34099;DHT22;20374;49.474;10.944;2023-04-01T23:32:18;8.60;99.90
34099;DHT22;20374;49.474;10.944;2023-04-01T23:34:51;8.60;99.90
34099;DHT22;20374;49.474;10.944;2023-04-01T23:37:18;8.50;99.90
34099;DHT22;20374;49.474;10.944;2023-04-01T23:39:53;8.50;99.90
34099;DHT22;20374;49.474;10.944;2023-04-01T23:42:26;8.50;99.90
34099;DHT22;20374;49.474;10.944;2023-04-01T23:44:56;8.50;99.90
34099;DHT22;20374;49.474;10.944;2023-04-01T23:47:26;8.50;99.90
34099;DHT22;20374;49.474;10.944;2023-04-01T23:50:01;8.50;99.90
34099;DHT22;20374;49.474;10.944;2023-04-01T23:52:36;8.50;99.90
34099;DHT22;20374;49.474;10.944;2023-04-01T23:55:31;8.40;99.90
34099;DHT22;20374;49.474;10.944;2023-04-01T23:58:26;8.50;99.90
